Time;durP1;ratioP1;P1;durP2;ratioP2;P2;SDS_P1;SDS_P2;PMS_P1;PMS_P2;Temp;Humidity;BMP_temperature;BMP_pressure;BME280_temperature;BME280_humidity;BME280_pressure;Samples;Min_cycle;Max_cycle;Signal;HPM_P1;HPM_P2
2021/03/25 00:01:34;;;;;;;;;;;19.30;52.00;;;;;;5052952;28;1076;-68
2021/03/25 00:03:59;;;;;;;;;;;19.30;52.00;;;;;;5052421;28;1370;-68
2021/03/25 00:06:25;;;;;;;;;;;19.20;52.00;;;;;;5052842;28;1092;-68
2021/03/25 00:08:50;;;;;;;;;;;19.20;52.00;;;;;;5052152;28;1076;-68
2021/03/25 00:11:16;;;;;;;;;;;19.20;52.00;;;;;;5053847;28;1162;-68
2021/03/25 00:13:41;;;;;;;;;;;19.20;52.10;;;;;;5051611;28;1199;-68
2021/03/25 00:16:08;;;;;;;;;;;19.20;52.10;;;;;;5053797;28;1983;-68
2021/03/25 00:18:34;;;;;;;;;;;19.20;52.20;;;;;;5053677;28;1066;-68
2021/03/25 00:20:59;;;;;;;;;;;19.20;52.20;;;;;;5052359;28;1350;-68
2021/03/25 00:23:25;;;;;;;;;;;19.20;52.20;;;;;;5052106;28;1235;-68
2021/03/25 00:25:50;;;;;;;;;;;19.20;52.20;;;;;;5053512;28;1080;-68
2021/03/25 00:28:16;;;;;;;;;;;19.20;52.20;;;;;;5052089;28;1083;-68
2021/03/25 00:30:41;;;;;;;;;;;19.20;52.30;;;;;;5052232;28;1134;-68
2021/03/25 00:33:07;;;;;;;;;;;19.20;52.30;;;;;;5053495;28;1154;-68
2021/03/25 00:35:33;;;;;;;;;;;19.20;52.30;;;;;;5051969;28;1906;-68
2021/03/25 00:37:58;;;;;;;;;;;19.20;52.30;;;;;;5052985;28;1071;-68
2021/03/25 00:40:23;;;;;;;;;;;19.20;52.30;;;;;;5052170;28;1107;-68
2021/03/25 00:42:49;;;;;;;;;;;19.10;52.30;;;;;;5053397;28;1130;-68
2021/03/25 00:45:28;;;;;;;;;;;19.10;52.30;;;;;;5053037;28;1206;-68
2021/03/25 00:47:53;;;;;;;;;;;19.20;52.40;;;;;;5051811;28;1103;-68
2021/03/25 00:50:21;;;;;;;;;;;19.10;52.40;;;;;;5052817;28;1043;-67
2021/03/25 00:52:46;;;;;;;;;;;19.10;52.40;;;;;;5052282;28;1134;-69
2021/03/25 00:55:12;;;;;;;;;;;19.10;52.40;;;;;;5051413;28;1906;-68
2021/03/25 00:57:37;;;;;;;;;;;19.10;52.50;;;;;;5051615;28;1084;-68
2021/03/25 01:00:03;;;;;;;;;;;19.10;52.50;;;;;;5053026;28;1149;-68
2021/03/25 01:02:29;;;;;;;;;;;19.10;52.50;;;;;;5051773;28;1087;-68
2021/03/25 01:04:54;;;;;;;;;;;19.10;52.50;;;;;;5053064;28;1371;-70
2021/03/25 01:07:24;;;;;;;;;;;19.10;52.60;;;;;;5052635;28;1071;-70
2021/03/25 01:09:49;;;;;;;;;;;19.10;52.50;;;;;;5051633;28;1075;-69
2021/03/25 01:12:15;;;;;;;;;;;19.10;52.60;;;;;;5052822;28;1071;-70
2021/03/25 01:14:40;;;;;;;;;;;19.10;52.60;;;;;;5051384;28;1887;-70
2021/03/25 01:17:06;;;;;;;;;;;19.10;52.60;;;;;;5052586;28;1313;-69
2021/03/25 01:19:31;;;;;;;;;;;19.10;52.60;;;;;;5034615;28;1314;-69
2021/03/25 01:21:57;;;;;;;;;;;19.10;52.70;;;;;;5051472;28;1059;-69
2021/03/25 01:24:22;;;;;;;;;;;19.10;52.70;;;;;;5050518;28;1399;-70
2021/03/25 01:26:47;;;;;;;;;;;19.10;52.70;;;;;;5051320;28;1182;-69
2021/03/25 01:29:13;;;;;;;;;;;19.10;52.70;;;;;;5034734;28;1475;-70
2021/03/25 01:31:38;;;;;;;;;;;19.10;52.80;;;;;;5051810;28;1166;-70
2021/03/25 01:34:04;;;;;;;;;;;19.10;52.80;;;;;;5052217;28;1265;-70
2021/03/25 01:36:30;;;;;;;;;;;19.10;52.80;;;;;;5052854;28;1902;-70
2021/03/25 01:38:55;;;;;;;;;;;19.10;52.80;;;;;;5052120;28;1067;-69
2021/03/25 01:41:21;;;;;;;;;;;19.10;52.80;;;;;;5052680;28;1079;-70
2021/03/25 01:43:46;;;;;;;;;;;19.10;52.80;;;;;;5051073;28;1302;-69
2021/03/25 01:46:16;;;;;;;;;;;19.10;52.90;;;;;;5051245;28;1118;-69
2021/03/25 01:48:43;;;;;;;;;;;19.10;52.90;;;;;;5051810;28;1107;-69
2021/03/25 01:51:12;;;;;;;;;;;19.10;52.90;;;;;;5051454;28;1115;-69
2021/03/25 01:53:52;;;;;;;;;;;19.00;52.90;;;;;;5051128;28;1406;-70
2021/03/25 01:56:24;;;;;;;;;;;19.00;52.90;;;;;;5051338;28;1976;-70
2021/03/25 01:59:09;;;;;;;;;;;19.10;53.00;;;;;;5050677;28;1186;-70
2021/03/25 02:01:37;;;;;;;;;;;19.00;52.90;;;;;;5052669;28;1298;-70
2021/03/25 02:04:19;;;;;;;;;;;19.00;53.00;;;;;;5050760;28;1223;-69
2021/03/25 02:06:53;;;;;;;;;;;19.00;53.00;;;;;;5051157;28;1384;-69
2021/03/25 02:09:27;;;;;;;;;;;19.00;53.00;;;;;;5050598;28;1285;-69
2021/03/25 02:11:55;;;;;;;;;;;19.00;53.00;;;;;;5051007;28;1349;-69
2021/03/25 02:14:22;;;;;;;;;;;19.00;53.00;;;;;;5052061;28;1282;-70
2021/03/25 02:16:48;;;;;;;;;;;19.00;53.00;;;;;;5050987;28;1901;-70
2021/03/25 02:19:28;;;;;;;;;;;19.00;53.10;;;;;;5051654;28;1075;-69
2021/03/25 02:22:00;;;;;;;;;;;19.00;53.10;;;;;;5050911;28;1415;-70
2021/03/25 02:24:33;;;;;;;;;;;19.00;53.10;;;;;;5050723;28;1389;-70
2021/03/25 02:27:14;;;;;;;;;;;19.00;53.10;;;;;;5050976;28;1178;-70
2021/03/25 02:29:48;;;;;;;;;;;19.00;53.10;;;;;;5050721;28;1210;-70
2021/03/25 02:32:33;;;;;;;;;;;19.00;53.10;;;;;;5051120;28;1182;-69
2021/03/25 02:34:59;;;;;;;;;;;19.00;53.20;;;;;;5051803;28;1886;-69
2021/03/25 02:37:26;;;;;;;;;;;19.00;53.20;;;;;;5054086;28;1190;-70
2021/03/25 02:40:06;;;;;;;;;;;19.00;53.20;;;;;;5054347;28;1076;-70
2021/03/25 02:42:45;;;;;;;;;;;19.00;53.20;;;;;;5055620;28;1150;-68
2021/03/25 02:45:15;;;;;;;;;;;19.00;53.20;;;;;;5054040;28;1230;-70
2021/03/25 02:47:41;;;;;;;;;;;18.90;53.20;;;;;;5054304;28;1071;-70
2021/03/25 02:50:18;;;;;;;;;;;18.90;53.20;;;;;;5054137;28;1342;-70
2021/03/25 02:52:45;;;;;;;;;;;18.90;53.30;;;;;;5054283;28;1080;-70
2021/03/25 02:55:12;;;;;;;;;;;19.00;53.30;;;;;;5053666;28;1973;-70
2021/03/25 02:57:38;;;;;;;;;;;19.00;53.40;;;;;;5053797;28;1130;-70
2021/03/25 03:00:08;;;;;;;;;;;19.00;53.30;;;;;;5055216;28;1122;-70
2021/03/25 03:02:35;;;;;;;;;;;18.90;53.30;;;;;;5055184;28;1055;-70
2021/03/25 03:05:01;;;;;;;;;;;18.90;53.30;;;;;;5053727;28;1285;-70
2021/03/25 03:07:27;;;;;;;;;;;18.90;53.30;;;;;;5053376;28;1166;-70
2021/03/25 03:09:54;;;;;;;;;;;19.00;53.40;;;;;;5053649;28;1079;-70
2021/03/25 03:12:30;;;;;;;;;;;19.00;54.00;;;;;;5053740;28;1276;-70
2021/03/25 03:14:58;;;;;;;;;;;19.00;53.30;;;;;;5053763;28;1914;-70
2021/03/25 03:17:34;;;;;;;;;;;19.00;53.20;;;;;;5053377;28;1059;-70
2021/03/25 03:20:12;;;;;;;;;;;19.00;53.10;;;;;;5053646;28;1213;-70
2021/03/25 03:22:37;;;;;;;;;;;19.00;53.10;;;;;;5054616;28;1186;-70
2021/03/25 03:25:13;;;;;;;;;;;19.10;53.00;;;;;;5053587;28;1272;-70
2021/03/25 03:27:41;;;;;;;;;;;19.10;53.00;;;;;;5053210;28;1249;-69
2021/03/25 03:30:08;;;;;;;;;;;19.10;52.90;;;;;;5054685;28;1055;-70
2021/03/25 03:32:34;;;;;;;;;;;19.10;52.90;;;;;;5054457;28;1111;-69
2021/03/25 03:35:02;;;;;;;;;;;19.10;52.80;;;;;;5053199;28;1963;-70
2021/03/25 03:37:33;;;;;;;;;;;19.20;52.80;;;;;;5052997;28;1226;-70
2021/03/25 03:39:59;;;;;;;;;;;19.20;52.80;;;;;;5036782;28;1691;-70
2021/03/25 03:42:24;;;;;;;;;;;19.20;52.80;;;;;;5054415;28;1123;-70
2021/03/25 03:44:50;;;;;;;;;;;19.20;52.70;;;;;;5053202;28;1211;-69
2021/03/25 03:47:16;;;;;;;;;;;19.20;52.70;;;;;;5035072;28;1256;-69
2021/03/25 03:49:49;;;;;;;;;;;19.20;52.70;;;;;;5053062;28;1091;-70
2021/03/25 03:52:15;;;;;;;;;;;19.20;52.70;;;;;;5053022;28;1178;-69
2021/03/25 03:54:41;;;;;;;;;;;19.20;52.70;;;;;;5052782;28;1981;-69
2021/03/25 03:57:21;;;;;;;;;;;19.20;52.70;;;;;;5052833;28;1237;-70
2021/03/25 03:59:56;;;;;;;;;;;19.20;52.70;;;;;;5052708;28;1135;-70
2021/03/25 04:02:25;;;;;;;;;;;19.20;52.70;;;;;;5052878;28;1170;-69
2021/03/25 04:04:52;;;;;;;;;;;19.20;52.70;;;;;;5053601;28;1263;-69
2021/03/25 04:07:20;;;;;;;;;;;19.20;52.70;;;;;;5052784;28;1079;-70
2021/03/25 04:09:47;;;;;;;;;;;19.20;52.70;;;;;;5052392;28;1103;-70
2021/03/25 04:12:13;;;;;;;;;;;19.30;52.70;;;;;;5036214;28;1522;-69
2021/03/25 04:14:46;;;;;;;;;;;19.30;52.70;;;;;;5035384;28;1909;-70
2021/03/25 04:17:12;;;;;;;;;;;19.30;52.60;;;;;;5052510;28;1142;-69
2021/03/25 04:19:39;;;;;;;;;;;19.40;52.70;;;;;;5052344;28;1336;-70
2021/03/25 04:22:05;;;;;;;;;;;19.40;52.50;;;;;;5052536;28;1150;-69
2021/03/25 04:24:32;;;;;;;;;;;19.50;52.40;;;;;;5052142;28;1242;-70
2021/03/25 04:27:03;;;;;;;;;;;19.60;52.20;;;;;;5052365;28;1099;-70
2021/03/25 04:29:33;;;;;;;;;;;19.70;52.00;;;;;;5053274;28;1075;-70
2021/03/25 04:31:58;;;;;;;;;;;19.80;51.80;;;;;;5052409;28;1130;-70
2021/03/25 04:34:24;;;;;;;;;;;19.90;51.70;;;;;;5051969;28;1315;-70
2021/03/25 04:36:49;;;;;;;;;;;20.00;51.50;;;;;;5053522;28;1898;-69
2021/03/25 04:39:16;;;;;;;;;;;20.10;51.30;;;;;;5051968;28;1115;-69
2021/03/25 04:41:41;;;;;;;;;;;20.10;51.20;;;;;;5052056;28;1107;-69
2021/03/25 04:44:07;;;;;;;;;;;20.20;51.10;;;;;;5051926;28;1394;-69
2021/03/25 04:46:44;;;;;;;;;;;20.30;51.00;;;;;;5051920;28;1063;-70
2021/03/25 04:49:12;;;;;;;;;;;20.30;50.80;;;;;;5051601;28;1230;-70
2021/03/25 04:51:37;;;;;;;;;;;20.40;50.70;;;;;;5042903;28;1887;-66
2021/03/25 04:54:10;;;;;;;;;;;20.40;50.60;;;;;;5053737;28;1262;-67
2021/03/25 04:56:35;;;;;;;;;;;20.50;50.50;;;;;;5052656;28;1961;-67
2021/03/25 04:59:01;;;;;;;;;;;20.50;50.40;;;;;;5050891;28;925;-68
2021/03/25 05:01:27;;;;;;;;;;;20.60;50.40;;;;;;5050317;28;1346;-69
2021/03/25 05:03:57;;;;;;;;;;;20.60;50.30;;;;;;5051537;28;1386;-69
2021/03/25 05:06:24;;;;;;;;;;;20.60;50.30;;;;;;5053176;28;1329;-68
2021/03/25 05:08:49;;;;;;;;;;;20.70;50.30;;;;;;5051148;28;1350;-67
2021/03/25 05:11:16;;;;;;;;;;;20.70;50.20;;;;;;5052908;28;1320;-66
2021/03/25 05:13:43;;;;;;;;;;;20.70;50.20;;;;;;5052744;28;1289;-67
2021/03/25 05:16:22;;;;;;;;;;;20.70;50.20;;;;;;5052342;28;1979;-66
2021/03/25 05:19:11;;;;;;;;;;;20.80;50.20;;;;;;5050644;28;1250;-69
2021/03/25 05:21:43;;;;;;;;;;;20.80;50.20;;;;;;5041860;28;1379;-68
2021/03/25 05:24:11;;;;;;;;;;;20.80;50.70;;;;;;5051078;28;1316;-68
2021/03/25 05:26:41;;;;;;;;;;;20.80;50.10;;;;;;5050604;28;1093;-68
2021/03/25 05:29:06;;;;;;;;;;;20.80;50.00;;;;;;5051016;28;1338;-68
2021/03/25 05:31:32;;;;;;;;;;;20.90;50.00;;;;;;5051377;28;1279;-67
2021/03/25 05:33:59;;;;;;;;;;;20.90;50.00;;;;;;5051061;28;1381;-67
2021/03/25 05:36:25;;;;;;;;;;;20.90;50.00;;;;;;5052431;28;1902;-68
2021/03/25 05:38:53;;;;;;;;;;;20.90;49.90;;;;;;5050877;28;1290;-68
2021/03/25 05:41:21;;;;;;;;;;;20.90;49.90;;;;;;5051501;28;1368;-67
2021/03/25 05:43:58;;;;;;;;;;;21.00;49.90;;;;;;5052241;28;1192;-67
2021/03/25 05:46:42;;;;;;;;;;;21.00;49.90;;;;;;5053894;28;1284;-67
2021/03/25 05:49:22;;;;;;;;;;;21.00;49.80;;;;;;5052949;28;1217;-68
2021/03/25 05:51:57;;;;;;;;;;;21.00;50.40;;;;;;5034521;28;1195;-67
2021/03/25 05:54:28;;;;;;;;;;;21.00;49.80;;;;;;5050939;28;1398;-68
2021/03/25 05:57:06;;;;;;;;;;;21.00;49.80;;;;;;5051626;28;1902;-66
2021/03/25 05:59:34;;;;;;;;;;;21.10;49.80;;;;;;5050947;28;1278;-67
2021/03/25 06:02:04;;;;;;;;;;;21.10;49.80;;;;;;5051132;28;1385;-67
2021/03/25 06:04:30;;;;;;;;;;;21.10;49.80;;;;;;5051029;28;1391;-67
2021/03/25 06:07:01;;;;;;;;;;;21.10;49.80;;;;;;5051789;28;1452;-67
2021/03/25 06:09:27;;;;;;;;;;;21.10;49.80;;;;;;5052229;28;1251;-67
2021/03/25 06:12:12;;;;;;;;;;;21.10;49.70;;;;;;5054030;28;1380;-67
2021/03/25 06:14:44;;;;;;;;;;;21.20;49.80;;;;;;5054835;28;1589;-67
2021/03/25 06:17:13;;;;;;;;;;;21.20;49.80;;;;;;5054241;28;1087;-69
2021/03/25 06:19:57;;;;;;;;;;;21.20;49.70;;;;;;5054735;28;1392;-69
2021/03/25 06:22:24;;;;;;;;;;;21.20;49.70;;;;;;5054830;28;1349;-69
2021/03/25 06:24:59;;;;;;;;;;;21.20;49.70;;;;;;5054613;28;1373;-70
2021/03/25 06:27:24;;;;;;;;;;;21.20;49.70;;;;;;5054295;28;1261;-70
2021/03/25 06:29:51;;;;;;;;;;;21.20;49.70;;;;;;5054934;28;1396;-70
2021/03/25 06:32:18;;;;;;;;;;;21.20;49.70;;;;;;5054349;28;1221;-70
2021/03/25 06:34:50;;;;;;;;;;;21.20;49.80;;;;;;5054453;28;1968;-70
2021/03/25 06:37:16;;;;;;;;;;;21.20;49.80;;;;;;5054194;28;1318;-70
2021/03/25 06:39:44;;;;;;;;;;;21.10;49.80;;;;;;5055829;28;1312;-70
2021/03/25 06:42:12;;;;;;;;;;;21.10;49.90;;;;;;5055568;28;997;-70
2021/03/25 06:44:42;;;;;;;;;;;21.10;49.90;;;;;;5054234;28;1342;-70
2021/03/25 06:47:17;;;;;;;;;;;21.10;50.00;;;;;;5054104;28;1016;-70
2021/03/25 06:49:45;;;;;;;;;;;21.10;50.10;;;;;;5037512;28;1404;-69
2021/03/25 06:52:20;;;;;;;;;;;21.10;50.10;;;;;;5054246;28;1310;-70
2021/03/25 06:54:46;;;;;;;;;;;21.00;50.10;;;;;;5054471;28;1906;-70
2021/03/25 06:57:15;;;;;;;;;;;21.00;50.20;;;;;;5055034;28;1280;-69
2021/03/25 06:59:40;;;;;;;;;;;21.00;50.30;;;;;;5053905;28;1302;-68
2021/03/25 07:02:09;;;;;;;;;;;21.00;50.30;;;;;;5053901;28;1354;-69
2021/03/25 07:04:44;;;;;;;;;;;20.90;50.20;;;;;;5075215;22;1802;-66
2021/03/25 07:07:16;;;;;;;;;;;20.90;47.20;;;;;;5052044;28;952;-67
2021/03/25 07:09:41;;;;;;;;;;;20.80;47.10;;;;;;5052918;28;1103;-66
2021/03/25 07:12:10;;;;;;;;;;;20.80;47.20;;;;;;5053304;28;1353;-66
2021/03/25 07:14:36;;;;;;;;;;;20.80;47.50;;;;;;5036199;28;1310;-66
2021/03/25 07:17:02;;;;;;;;;;;20.80;47.80;;;;;;5054070;28;1918;-66
2021/03/25 07:19:27;;;;;;;;;;;20.80;48.00;;;;;;5052838;28;1274;-66
2021/03/25 07:22:13;;;;;;;;;;;20.80;48.20;;;;;;5052926;28;1252;-65
2021/03/25 07:24:39;;;;;;;;;;;20.80;48.30;;;;;;5054062;28;1382;-66
2021/03/25 07:27:08;;;;;;;;;;;20.80;48.50;;;;;;5054081;28;1169;-66
2021/03/25 07:29:36;;;;;;;;;;;20.80;48.60;;;;;;5053182;28;1076;-66
2021/03/25 07:32:04;;;;;;;;;;;20.80;48.80;;;;;;5052996;28;1302;-65
2021/03/25 07:34:31;;;;;;;;;;;20.70;48.90;;;;;;5059459;28;1649;-66
2021/03/25 07:36:57;;;;;;;;;;;20.80;49.00;;;;;;5060328;28;1902;-66
2021/03/25 07:39:23;;;;;;;;;;;20.80;49.10;;;;;;5052302;28;1123;-66
2021/03/25 07:41:49;;;;;;;;;;;20.80;49.20;;;;;;5040054;28;1312;-67
2021/03/25 07:44:35;;;;;;;;;;;20.80;49.30;;;;;;5052028;28;1362;-65
2021/03/25 07:47:01;;;;;;;;;;;20.70;49.40;;;;;;5051448;28;1281;-66
2021/03/25 07:49:30;;;;;;;;;;;20.70;49.40;;;;;;5052875;28;1353;-66
2021/03/25 07:52:02;;;;;;;;;;;20.70;49.50;;;;;;5052306;28;1262;-66
2021/03/25 07:54:34;;;;;;;;;;;20.70;49.60;;;;;;5035951;28;1385;-65
2021/03/25 07:57:02;;;;;;;;;;;20.70;49.70;;;;;;5052876;28;1902;-67
2021/03/25 07:59:28;;;;;;;;;;;20.70;49.70;;;;;;5053543;28;1307;-64
2021/03/25 08:01:53;;;;;;;;;;;20.60;49.70;;;;;;5053267;28;1355;-67
2021/03/25 08:04:26;;;;;;;;;;;20.60;49.80;;;;;;5051999;28;1472;-67
2021/03/25 08:07:17;;;;;;;;;;;20.60;49.90;;;;;;5049090;28;1335;-67
2021/03/25 08:09:49;;;;;;;;;;;20.60;50.00;;;;;;5043181;28;1156;-67
2021/03/25 08:12:30;;;;;;;;;;;20.60;50.60;;;;;;5042674;28;1156;-67
2021/03/25 08:15:06;;;;;;;;;;;20.60;50.90;;;;;;5044708;28;1931;-67
2021/03/25 08:17:41;;;;;;;;;;;20.60;51.70;;;;;;5055193;28;1360;-66
2021/03/25 08:20:25;;;;;;;;;;;20.50;51.60;;;;;;5024224;28;1341;-66
2021/03/25 08:23:09;;;;;;;;;;;20.50;51.80;;;;;;5052025;28;1275;-66
2021/03/25 08:25:41;;;;;;;;;;;20.50;52.00;;;;;;5043188;28;1292;-66
2021/03/25 08:28:06;;;;;;;;;;;20.50;52.10;;;;;;5046253;28;1391;-66
2021/03/25 08:30:46;;;;;;;;;;;20.50;52.20;;;;;;5047614;28;1249;-66
2021/03/25 08:33:30;;;;;;;;;;;20.50;52.30;;;;;;5052852;28;1103;-67
2021/03/25 08:36:34;;;;;;;;;;;20.50;52.30;;;;;;5052601;28;1965;-66
2021/03/25 08:39:05;;;;;;;;;;;20.50;52.50;;;;;;5049380;28;1424;-67
2021/03/25 08:41:34;;;;;;;;;;;20.50;52.50;;;;;;5050227;28;1323;-67
2021/03/25 08:44:10;;;;;;;;;;;20.50;52.50;;;;;;5041109;28;1250;-67
2021/03/25 08:47:08;;;;;;;;;;;20.50;52.60;;;;;;5052684;28;1325;-65
2021/03/25 08:49:36;;;;;;;;;;;20.50;52.70;;;;;;5049860;28;1405;-67
2021/03/25 08:52:02;;;;;;;;;;;20.50;52.70;;;;;;5051451;28;1373;-66
2021/03/25 08:54:30;;;;;;;;;;;20.40;52.70;;;;;;5051060;28;1286;-65
2021/03/25 08:56:57;;;;;;;;;;;20.40;52.70;;;;;;5052311;28;1902;-65
2021/03/25 08:59:24;;;;;;;;;;;20.50;52.80;;;;;;5050162;28;1192;-64
2021/03/25 09:01:51;;;;;;;;;;;20.40;52.80;;;;;;5050921;28;1326;-66
2021/03/25 09:04:16;;;;;;;;;;;20.40;52.90;;;;;;5051066;28;1419;-66
2021/03/25 09:06:42;;;;;;;;;;;20.40;52.90;;;;;;5051140;28;1375;-66
2021/03/25 09:09:26;;;;;;;;;;;20.50;52.90;;;;;;5052487;28;2186;-66
2021/03/25 09:11:51;;;;;;;;;;;20.40;53.10;;;;;;5056059;28;1062;-66
2021/03/25 09:14:20;;;;;;;;;;;20.40;53.10;;;;;;5052210;28;1293;-64
2021/03/25 09:16:46;;;;;;;;;;;20.40;53.20;;;;;;5050469;28;1913;-64
2021/03/25 09:19:17;;;;;;;;;;;20.40;53.20;;;;;;5050251;28;1292;-66
2021/03/25 09:21:44;;;;;;;;;;;20.40;53.30;;;;;;5051043;28;1426;-64
2021/03/25 09:24:10;;;;;;;;;;;20.40;53.40;;;;;;5051297;28;1660;-65
2021/03/25 09:26:42;;;;;;;;;;;20.40;53.40;;;;;;5052002;28;1457;-64
2021/03/25 09:29:10;;;;;;;;;;;20.40;53.50;;;;;;5051988;28;1765;-65
2021/03/25 09:31:39;;;;;;;;;;;20.40;53.30;;;;;;5051227;28;1600;-65
2021/03/25 09:34:10;;;;;;;;;;;20.40;53.50;;;;;;5051655;28;1511;-64
2021/03/25 09:36:36;;;;;;;;;;;20.40;53.50;;;;;;5052566;28;1886;-64
2021/03/25 09:39:04;;;;;;;;;;;20.40;53.60;;;;;;5050175;28;1621;-64
2021/03/25 09:41:30;;;;;;;;;;;20.40;53.80;;;;;;5052277;28;1388;-64
2021/03/25 09:44:01;;;;;;;;;;;20.40;53.70;;;;;;5050580;28;1673;-65
2021/03/25 09:46:42;;;;;;;;;;;20.30;53.80;;;;;;5053945;28;1048;-64
2021/03/25 09:49:29;;;;;;;;;;;20.40;53.80;;;;;;5054984;28;1305;-64
2021/03/25 09:52:11;;;;;;;;;;;20.30;53.80;;;;;;5041166;28;1404;-64
2021/03/25 09:54:36;;;;;;;;;;;20.30;53.80;;;;;;5055562;28;1302;-64
2021/03/25 09:57:20;;;;;;;;;;;20.30;53.90;;;;;;5055314;28;1902;-64
2021/03/25 09:59:53;;;;;;;;;;;20.30;53.90;;;;;;5055982;28;1302;-64
2021/03/25 10:02:37;;;;;;;;;;;20.30;54.00;;;;;;5054481;28;1381;-64
2021/03/25 10:05:15;;;;;;;;;;;20.30;54.00;;;;;;5055551;28;1362;-64
2021/03/25 10:07:41;;;;;;;;;;;20.30;54.40;;;;;;5053881;28;1321;-64
2021/03/25 10:10:24;;;;;;;;;;;20.30;54.20;;;;;;5055992;28;1355;-64
2021/03/25 10:12:54;;;;;;;;;;;20.30;54.20;;;;;;5055650;28;1299;-64
2021/03/25 10:15:50;;;;;;;;;;;20.30;54.30;;;;;;5053910;28;1906;-66
2021/03/25 10:18:15;;;;;;;;;;;20.30;54.30;;;;;;5054802;28;1369;-64
2021/03/25 10:20:43;;;;;;;;;;;20.30;54.30;;;;;;5055400;28;1286;-64
2021/03/25 10:23:21;;;;;;;;;;;20.30;54.30;;;;;;5055180;28;1079;-64
2021/03/25 10:25:47;;;;;;;;;;;20.30;54.40;;;;;;5055164;28;1270;-64
2021/03/25 10:28:13;;;;;;;;;;;20.20;54.30;;;;;;5053362;28;1000;-65
2021/03/25 10:30:39;;;;;;;;;;;20.20;54.30;;;;;;5053892;28;1350;-65
2021/03/25 10:33:08;;;;;;;;;;;20.20;54.30;;;;;;5054293;28;1095;-64
2021/03/25 10:35:34;;;;;;;;;;;20.20;54.70;;;;;;5048806;28;2016;-65
2021/03/25 10:38:03;;;;;;;;;;;20.20;54.70;;;;;;5035118;28;1170;-65
2021/03/25 10:40:31;;;;;;;;;;;20.20;54.70;;;;;;5052786;28;1342;-64
2021/03/25 10:43:01;;;;;;;;;;;20.20;54.70;;;;;;5053603;28;1018;-65
2021/03/25 10:45:45;;;;;;;;;;;20.20;54.70;;;;;;5054061;28;1330;-65
2021/03/25 10:48:16;;;;;;;;;;;20.20;54.60;;;;;;5054105;28;1270;-65
2021/03/25 10:50:53;;;;;;;;;;;20.20;54.80;;;;;;5036468;28;1362;-64
2021/03/25 10:53:20;;;;;;;;;;;20.20;54.80;;;;;;5045815;28;1085;-64
2021/03/25 10:55:46;;;;;;;;;;;20.20;55.00;;;;;;5053589;28;1979;-66
2021/03/25 10:58:18;;;;;;;;;;;20.20;55.00;;;;;;5052332;28;1396;-65
2021/03/25 11:00:43;;;;;;;;;;;20.20;54.90;;;;;;5054028;28;1261;-66
2021/03/25 11:03:27;;;;;;;;;;;20.20;54.90;;;;;;5054469;28;1320;-65
2021/03/25 11:05:56;;;;;;;;;;;20.20;54.90;;;;;;5054379;28;1375;-65
2021/03/25 11:08:30;;;;;;;;;;;20.10;54.90;;;;;;5053748;28;1350;-64
2021/03/25 11:10:55;;;;;;;;;;;20.10;54.90;;;;;;5054852;28;1301;-64
2021/03/25 11:13:21;;;;;;;;;;;20.10;55.00;;;;;;5053266;28;1281;-64
2021/03/25 11:15:47;;;;;;;;;;;20.10;55.00;;;;;;5054388;28;1968;-65
2021/03/25 11:18:17;;;;;;;;;;;20.10;55.10;;;;;;5052140;28;1175;-64
2021/03/25 11:20:42;;;;;;;;;;;20.10;55.10;;;;;;5052920;28;1290;-67
2021/03/25 11:23:07;;;;;;;;;;;20.10;55.20;;;;;;5054052;28;1338;-65
2021/03/25 11:25:33;;;;;;;;;;;20.10;55.20;;;;;;5054280;28;1304;-67
2021/03/25 11:28:03;;;;;;;;;;;20.10;55.20;;;;;;5051613;28;2192;-66
2021/03/25 11:30:32;;;;;;;;;;;20.10;55.10;;;;;;5052799;28;1335;-67
2021/03/25 11:32:57;;;;;;;;;;;20.10;55.20;;;;;;5055188;28;1344;-67
2021/03/25 11:35:23;;;;;;;;;;;20.10;55.20;;;;;;5053720;28;1890;-66
2021/03/25 11:37:48;;;;;;;;;;;20.10;55.20;;;;;;5053495;28;1309;-67
2021/03/25 11:40:15;;;;;;;;;;;20.10;55.20;;;;;;5053777;28;1352;-67
2021/03/25 11:42:41;;;;;;;;;;;20.10;55.30;;;;;;5054008;28;1392;-67
2021/03/25 11:45:07;;;;;;;;;;;20.10;55.30;;;;;;5054047;28;1291;-67
2021/03/25 11:47:33;;;;;;;;;;;20.10;55.50;;;;;;5052857;28;1401;-68
2021/03/25 11:49:58;;;;;;;;;;;20.10;55.40;;;;;;5053636;28;1302;-68
2021/03/25 11:52:24;;;;;;;;;;;20.10;55.50;;;;;;5053603;28;1338;-68
2021/03/25 11:54:59;;;;;;;;;;;20.10;55.50;;;;;;5051784;28;1306;-64
2021/03/25 11:57:26;;;;;;;;;;;20.10;55.50;;;;;;5052090;28;1432;-67
2021/03/25 12:00:07;;;;;;;;;;;20.10;55.50;;;;;;5053641;28;1335;-64
2021/03/25 12:02:32;;;;;;;;;;;20.10;55.50;;;;;;5053908;28;1412;-64
2021/03/25 12:04:59;;;;;;;;;;;20.10;55.50;;;;;;5052959;28;1373;-67
2021/03/25 12:07:25;;;;;;;;;;;20.10;55.50;;;;;;5050780;28;1435;-64
2021/03/25 12:10:03;;;;;;;;;;;20.10;55.50;;;;;;5052406;28;1294;-65
2021/03/25 12:12:28;;;;;;;;;;;20.10;55.60;;;;;;5052881;28;1035;-64
2021/03/25 12:14:54;;;;;;;;;;;20.10;55.50;;;;;;5052311;28;1263;-64
2021/03/25 12:17:19;;;;;;;;;;;20.10;55.60;;;;;;5051586;28;1107;-64
2021/03/25 12:19:45;;;;;;;;;;;20.10;55.70;;;;;;5052191;28;1298;-64
2021/03/25 12:22:10;;;;;;;;;;;20.10;55.70;;;;;;5051141;28;1310;-67
2021/03/25 12:24:36;;;;;;;;;;;20.10;55.70;;;;;;5051704;28;1348;-64
2021/03/25 12:27:01;;;;;;;;;;;20.10;55.80;;;;;;5041623;28;1158;-68
2021/03/25 12:29:27;;;;;;;;;;;20.10;55.70;;;;;;5050247;28;1372;-64
2021/03/25 12:31:52;;;;;;;;;;;20.10;55.70;;;;;;5052983;28;1339;-65
2021/03/25 12:34:18;;;;;;;;;;;20.10;55.80;;;;;;5052869;28;1385;-65
2021/03/25 12:36:43;;;;;;;;;;;20.10;55.70;;;;;;5051166;28;1985;-64
2021/03/25 12:39:09;;;;;;;;;;;20.10;55.70;;;;;;5050838;28;1163;-67
2021/03/25 12:41:34;;;;;;;;;;;20.10;55.80;;;;;;5052333;28;1275;-64
2021/03/25 12:44:00;;;;;;;;;;;20.10;55.70;;;;;;5052308;28;1317;-64
2021/03/25 12:46:25;;;;;;;;;;;20.00;55.70;;;;;;5051649;28;2091;-64
2021/03/25 12:48:50;;;;;;;;;;;20.10;55.80;;;;;;5051874;28;1159;-66
2021/03/25 12:51:16;;;;;;;;;;;20.10;55.80;;;;;;5051614;28;1346;-66
2021/03/25 12:53:42;;;;;;;;;;;20.10;55.90;;;;;;5052367;28;1348;-65
2021/03/25 12:56:10;;;;;;;;;;;20.10;56.00;;;;;;5052366;28;1965;-67
2021/03/25 12:58:37;;;;;;;;;;;20.10;55.90;;;;;;5050063;28;1369;-66
2021/03/25 13:01:06;;;;;;;;;;;20.10;55.80;;;;;;5057894;28;1329;-64
2021/03/25 13:03:31;;;;;;;;;;;20.10;56.10;;;;;;5055455;28;1543;-65
2021/03/25 13:05:57;;;;;;;;;;;20.20;55.70;;;;;;5079536;22;3484;-70
2021/03/25 13:08:22;;;;;;;;;;;20.20;53.80;;;;;;5051763;28;1464;-69
2021/03/25 13:10:48;;;;;;;;;;;20.20;52.90;;;;;;5052799;28;1641;-69
2021/03/25 13:13:13;;;;;;;;;;;20.20;51.90;;;;;;5052310;28;1374;-69
2021/03/25 13:15:39;;;;;;;;;;;20.20;51.40;;;;;;5040959;28;1902;-69
2021/03/25 13:18:04;;;;;;;;;;;20.20;51.10;;;;;;5031291;28;1581;-69
2021/03/25 13:20:29;;;;;;;;;;;20.20;50.70;;;;;;5031653;28;1560;-70
2021/03/25 13:22:55;;;;;;;;;;;20.20;50.40;;;;;;5013999;28;1568;-69
2021/03/25 13:25:22;;;;;;;;;;;20.20;50.20;;;;;;5032568;28;1346;-69
2021/03/25 13:27:47;;;;;;;;;;;20.20;50.00;;;;;;5031622;28;1468;-70
2021/03/25 13:30:13;;;;;;;;;;;20.10;49.50;;;;;;5030102;28;2263;-69
2021/03/25 13:32:39;;;;;;;;;;;20.20;49.20;;;;;;5025500;28;1941;-68
2021/03/25 13:35:05;;;;;;;;;;;20.20;49.10;;;;;;5030360;28;1963;-69
2021/03/25 13:37:30;;;;;;;;;;;20.20;49.00;;;;;;5030376;28;1256;-69
2021/03/25 13:39:56;;;;;;;;;;;20.20;48.90;;;;;;5013684;28;1069;-69
2021/03/25 13:42:21;;;;;;;;;;;20.20;48.80;;;;;;5030727;28;1358;-68
2021/03/25 13:44:47;;;;;;;;;;;20.20;48.70;;;;;;5031374;28;1259;-69
2021/03/25 13:47:13;;;;;;;;;;;20.20;48.60;;;;;;5029629;28;1249;-69
2021/03/25 13:49:38;;;;;;;;;;;20.20;48.60;;;;;;5013373;28;1067;-70
2021/03/25 13:52:04;;;;;;;;;;;20.20;48.40;;;;;;5030982;28;1308;-70
2021/03/25 13:54:29;;;;;;;;;;;20.20;48.30;;;;;;5030637;28;1340;-70
2021/03/25 13:56:55;;;;;;;;;;;20.20;48.10;;;;;;5030798;28;1957;-70
2021/03/25 13:59:20;;;;;;;;;;;20.20;48.10;;;;;;5012635;28;1356;-70
2021/03/25 14:01:46;;;;;;;;;;;20.20;48.00;;;;;;5030955;28;1065;-70
2021/03/25 14:04:11;;;;;;;;;;;20.20;48.00;;;;;;5030812;28;1034;-70
2021/03/25 14:06:37;;;;;;;;;;;20.20;47.90;;;;;;5030737;28;1388;-70
2021/03/25 14:09:02;;;;;;;;;;;20.20;48.50;;;;;;5012373;28;1274;-70
2021/03/25 14:11:28;;;;;;;;;;;20.20;47.80;;;;;;5013212;28;1291;-70
2021/03/25 14:13:53;;;;;;;;;;;20.20;47.70;;;;;;5031323;28;1319;-69
2021/03/25 14:16:19;;;;;;;;;;;20.20;47.60;;;;;;5030365;28;1923;-70
2021/03/25 14:18:47;;;;;;;;;;;20.20;47.50;;;;;;5029481;28;1280;-70
2021/03/25 14:21:13;;;;;;;;;;;20.20;47.50;;;;;;5031295;28;1399;-70
2021/03/25 14:23:38;;;;;;;;;;;20.20;47.40;;;;;;5025565;28;1267;-70
2021/03/25 14:26:04;;;;;;;;;;;20.20;47.30;;;;;;5027278;28;1335;-70
2021/03/25 14:28:29;;;;;;;;;;;20.20;47.40;;;;;;5031183;28;1276;-70
2021/03/25 14:30:55;;;;;;;;;;;20.20;47.50;;;;;;5031899;28;1330;-70
2021/03/25 14:33:21;;;;;;;;;;;20.20;47.10;;;;;;5034531;28;1171;-70
2021/03/25 14:35:46;;;;;;;;;;;20.20;47.10;;;;;;5017262;28;1963;-70
2021/03/25 14:38:12;;;;;;;;;;;20.20;47.10;;;;;;5016673;28;1065;-70
2021/03/25 14:40:38;;;;;;;;;;;20.20;47.10;;;;;;5035253;28;1395;-70
2021/03/25 14:43:03;;;;;;;;;;;20.20;47.00;;;;;;5034990;28;1337;-70